sensor_id;sensor_type;location;lat;lon;timestamp;temperature;humidity
648;DHT22;75315;49.006;9.060;2024-01-30T00:01:12;1.50;61.50
648;DHT22;75315;49.006;9.060;2024-01-30T00:03:57;1.40;38.90
648;DHT22;75315;49.006;9.060;2024-01-30T00:06:44;1.30;1.00
648;DHT22;75315;49.006;9.060;2024-01-30T00:09:30;1.30;99.90
648;DHT22;75315;49.006;9.060;2024-01-30T00:12:15;1.30;1.00
648;DHT22;75315;49.006;9.060;2024-01-30T00:15:01;1.50;99.90
648;DHT22;75315;49.006;9.060;2024-01-30T00:17:47;1.40;99.90
648;DHT22;75315;49.006;9.060;2024-01-30T00:20:33;1.50;1.00
648;DHT22;75315;49.006;9.060;2024-01-30T00:23:18;1.50;1.00
648;DHT22;75315;49.006;9.060;2024-01-30T00:26:04;1.40;1.00
648;DHT22;75315;49.006;9.060;2024-01-30T00:28:50;1.40;99.90
648;DHT22;75315;49.006;9.060;2024-01-30T00:31:36;1.40;99.90
648;DHT22;75315;49.006;9.060;2024-01-30T00:34:26;1.60;99.90
648;DHT22;75315;49.006;9.060;2024-01-30T00:37:11;1.60;1.00
648;DHT22;75315;49.006;9.060;2024-01-30T00:39:57;1.50;99.90
648;DHT22;75315;49.006;9.060;2024-01-30T00:42:43;1.50;1.00
648;DHT22;75315;49.006;9.060;2024-01-30T00:45:28;1.50;1.00
648;DHT22;75315;49.006;9.060;2024-01-30T00:48:14;1.40;1.00
648;DHT22;75315;49.006;9.060;2024-01-30T00:50:59;1.30;99.90
648;DHT22;75315;49.006;9.060;2024-01-30T00:53:45;1.30;30.20
648;DHT22;75315;49.006;9.060;2024-01-30T00:56:31;1.30;1.00
648;DHT22;75315;49.006;9.060;2024-01-30T00:59:16;1.30;99.90
648;DHT22;75315;49.006;9.060;2024-01-30T01:02:02;1.30;1.00
648;DHT22;75315;49.006;9.060;2024-01-30T01:04:48;1.30;99.90
648;DHT22;75315;49.006;9.060;2024-01-30T01:07:33;1.40;37.50
648;DHT22;75315;49.006;9.060;2024-01-30T01:10:19;1.50;1.00
648;DHT22;75315;49.006;9.060;2024-01-30T01:13:05;1.50;99.90
648;DHT22;75315;49.006;9.060;2024-01-30T01:15:50;1.50;99.90
648;DHT22;75315;49.006;9.060;2024-01-30T01:18:36;1.40;1.00
648;DHT22;75315;49.006;9.060;2024-01-30T01:21:21;1.30;99.90
648;DHT22;75315;49.006;9.060;2024-01-30T01:24:07;1.30;1.00
648;DHT22;75315;49.006;9.060;2024-01-30T01:26:52;1.20;1.00
648;DHT22;75315;49.006;9.060;2024-01-30T01:29:38;1.20;79.60
648;DHT22;75315;49.006;9.060;2024-01-30T01:32:24;1.20;1.00
648;DHT22;75315;49.006;9.060;2024-01-30T01:35:09;1.20;99.90
648;DHT22;75315;49.006;9.060;2024-01-30T01:37:56;1.20;1.00
648;DHT22;75315;49.006;9.060;2024-01-30T01:40:43;1.10;99.90
648;DHT22;75315;49.006;9.060;2024-01-30T01:43:29;1.10;1.00
648;DHT22;75315;49.006;9.060;2024-01-30T01:46:15;1.10;1.00
648;DHT22;75315;49.006;9.060;2024-01-30T01:49:02;1.10;1.00
648;DHT22;75315;49.006;9.060;2024-01-30T01:51:48;1.10;1.00
648;DHT22;75315;49.006;9.060;2024-01-30T01:54:34;1.20;99.90
648;DHT22;75315;49.006;9.060;2024-01-30T01:57:20;1.10;99.90
648;DHT22;75315;49.006;9.060;2024-01-30T02:00:06;1.10;99.90
648;DHT22;75315;49.006;9.060;2024-01-30T02:02:54;1.00;1.00
648;DHT22;75315;49.006;9.060;2024-01-30T02:05:41;1.10;1.00
648;DHT22;75315;49.006;9.060;2024-01-30T02:08:28;1.20;99.90
648;DHT22;75315;49.006;9.060;2024-01-30T02:11:13;1.20;30.50
648;DHT22;75315;49.006;9.060;2024-01-30T02:14:05;1.10;1.00
648;DHT22;75315;49.006;9.060;2024-01-30T02:16:50;1.10;1.00
648;DHT22;75315;49.006;9.060;2024-01-30T02:19:36;1.00;99.90
648;DHT22;75315;49.006;9.060;2024-01-30T02:22:22;0.90;29.80
648;DHT22;75315;49.006;9.060;2024-01-30T02:25:08;0.80;1.00
648;DHT22;75315;49.006;9.060;2024-01-30T02:27:54;0.80;1.00
648;DHT22;75315;49.006;9.060;2024-01-30T02:30:40;0.90;99.90
648;DHT22;75315;49.006;9.060;2024-01-30T02:33:25;0.90;99.90
648;DHT22;75315;49.006;9.060;2024-01-30T02:36:11;0.90;1.00
648;DHT22;75315;49.006;9.060;2024-01-30T02:38:56;0.90;99.90
648;DHT22;75315;49.006;9.060;2024-01-30T02:41:42;0.90;99.90
648;DHT22;75315;49.006;9.060;2024-01-30T02:44:28;0.80;1.00
648;DHT22;75315;49.006;9.060;2024-01-30T02:47:13;0.90;99.90
648;DHT22;75315;49.006;9.060;2024-01-30T02:49:59;0.70;1.00
648;DHT22;75315;49.006;9.060;2024-01-30T02:52:45;0.90;86.60
648;DHT22;75315;49.006;9.060;2024-01-30T02:55:31;0.90;1.00
648;DHT22;75315;49.006;9.060;2024-01-30T02:58:16;1.00;99.90
648;DHT22;75315;49.006;9.060;2024-01-30T03:01:02;1.00;1.00
648;DHT22;75315;49.006;9.060;2024-01-30T03:03:48;1.10;99.90
648;DHT22;75315;49.006;9.060;2024-01-30T03:06:33;1.20;99.90
648;DHT22;75315;49.006;9.060;2024-01-30T03:09:19;1.00;1.00
648;DHT22;75315;49.006;9.060;2024-01-30T03:12:05;0.90;1.00
648;DHT22;75315;49.006;9.060;2024-01-30T03:14:55;0.80;1.00
648;DHT22;75315;49.006;9.060;2024-01-30T03:17:41;0.80;1.00
648;DHT22;75315;49.006;9.060;2024-01-30T03:20:26;0.60;80.70
648;DHT22;75315;49.006;9.060;2024-01-30T03:23:11;0.60;99.90
648;DHT22;75315;49.006;9.060;2024-01-30T03:25:57;0.60;1.00
648;DHT22;75315;49.006;9.060;2024-01-30T03:28:42;0.50;99.90
648;DHT22;75315;49.006;9.060;2024-01-30T03:31:28;0.70;99.90
648;DHT22;75315;49.006;9.060;2024-01-30T03:34:13;0.80;1.00
648;DHT22;75315;49.006;9.060;2024-01-30T03:36:59;0.70;99.90
648;DHT22;75315;49.006;9.060;2024-01-30T03:39:45;0.70;99.90
648;DHT22;75315;49.006;9.060;2024-01-30T03:42:30;0.60;1.00
648;DHT22;75315;49.006;9.060;2024-01-30T03:45:16;0.60;99.90
648;DHT22;75315;49.006;9.060;2024-01-30T03:48:01;0.60;99.90
648;DHT22;75315;49.006;9.060;2024-01-30T03:50:47;0.60;93.50
648;DHT22;75315;49.006;9.060;2024-01-30T03:53:32;0.50;1.00
648;DHT22;75315;49.006;9.060;2024-01-30T03:56:18;0.40;99.90
648;DHT22;75315;49.006;9.060;2024-01-30T03:59:04;0.40;99.90
648;DHT22;75315;49.006;9.060;2024-01-30T04:01:49;0.40;1.00
648;DHT22;75315;49.006;9.060;2024-01-30T04:04:35;0.60;1.00
648;DHT22;75315;49.006;9.060;2024-01-30T04:07:21;0.60;1.00
648;DHT22;75315;49.006;9.060;2024-01-30T04:10:09;0.70;99.90
648;DHT22;75315;49.006;9.060;2024-01-30T04:12:55;0.60;99.90
648;DHT22;75315;49.006;9.060;2024-01-30T04:15:41;0.50;99.90
648;DHT22;75315;49.006;9.060;2024-01-30T04:18:27;0.40;92.40
648;DHT22;75315;49.006;9.060;2024-01-30T04:21:12;0.40;1.00
648;DHT22;75315;49.006;9.060;2024-01-30T04:23:57;0.40;99.90
648;DHT22;75315;49.006;9.060;2024-01-30T04:26:43;0.50;99.90
648;DHT22;75315;49.006;9.060;2024-01-30T04:29:29;0.60;99.90
648;DHT22;75315;49.006;9.060;2024-01-30T04:32:14;0.50;1.00
648;DHT22;75315;49.006;9.060;2024-01-30T04:35:00;0.50;46.20
648;DHT22;75315;49.006;9.060;2024-01-30T04:37:46;0.50;1.00
648;DHT22;75315;49.006;9.060;2024-01-30T04:40:31;0.40;6.90
648;DHT22;75315;49.006;9.060;2024-01-30T04:43:17;0.40;1.00
648;DHT22;75315;49.006;9.060;2024-01-30T04:46:04;0.40;1.00
648;DHT22;75315;49.006;9.060;2024-01-30T04:48:50;0.40;99.90
648;DHT22;75315;49.006;9.060;2024-01-30T04:51:36;0.50;36.00
648;DHT22;75315;49.006;9.060;2024-01-30T04:54:22;0.50;1.00
648;DHT22;75315;49.006;9.060;2024-01-30T04:57:07;0.60;1.00
648;DHT22;75315;49.006;9.060;2024-01-30T04:59:54;0.50;99.90
648;DHT22;75315;49.006;9.060;2024-01-30T05:02:40;0.50;50.30
648;DHT22;75315;49.006;9.060;2024-01-30T05:05:25;0.50;1.00
648;DHT22;75315;49.006;9.060;2024-01-30T05:08:11;0.60;99.90
648;DHT22;75315;49.006;9.060;2024-01-30T05:11:00;0.60;99.90
648;DHT22;75315;49.006;9.060;2024-01-30T05:13:45;0.80;1.00
648;DHT22;75315;49.006;9.060;2024-01-30T05:16:31;0.80;14.70
648;DHT22;75315;49.006;9.060;2024-01-30T05:19:17;0.70;1.00
648;DHT22;75315;49.006;9.060;2024-01-30T05:22:03;0.60;99.90
648;DHT22;75315;49.006;9.060;2024-01-30T05:24:48;0.50;99.90
648;DHT22;75315;49.006;9.060;2024-01-30T05:27:34;0.50;99.90
648;DHT22;75315;49.006;9.060;2024-01-30T05:30:20;0.50;99.90
648;DHT22;75315;49.006;9.060;2024-01-30T05:33:05;0.40;99.90
648;DHT22;75315;49.006;9.060;2024-01-30T05:35:51;0.40;99.90
648;DHT22;75315;49.006;9.060;2024-01-30T05:38:39;0.40;99.90
648;DHT22;75315;49.006;9.060;2024-01-30T05:41:25;0.40;1.00
648;DHT22;75315;49.006;9.060;2024-01-30T05:44:10;0.50;1.00
648;DHT22;75315;49.006;9.060;2024-01-30T05:46:56;0.40;99.90
648;DHT22;75315;49.006;9.060;2024-01-30T05:49:42;0.40;99.90
648;DHT22;75315;49.006;9.060;2024-01-30T05:52:27;0.30;99.90
648;DHT22;75315;49.006;9.060;2024-01-30T05:55:13;0.50;1.00
648;DHT22;75315;49.006;9.060;2024-01-30T05:57:58;0.50;10.80
648;DHT22;75315;49.006;9.060;2024-01-30T06:00:44;0.80;99.90
648;DHT22;75315;49.006;9.060;2024-01-30T06:03:29;0.80;99.90
648;DHT22;75315;49.006;9.060;2024-01-30T06:06:15;1.00;1.00
648;DHT22;75315;49.006;9.060;2024-01-30T06:09:00;0.80;1.00
648;DHT22;75315;49.006;9.060;2024-01-30T06:11:46;0.70;99.90
648;DHT22;75315;49.006;9.060;2024-01-30T06:14:32;0.50;1.00
648;DHT22;75315;49.006;9.060;2024-01-30T06:17:18;0.40;99.90
648;DHT22;75315;49.006;9.060;2024-01-30T06:20:04;0.50;99.90
648;DHT22;75315;49.006;9.060;2024-01-30T06:22:50;0.40;99.90
648;DHT22;75315;49.006;9.060;2024-01-30T06:25:36;0.40;99.90
648;DHT22;75315;49.006;9.060;2024-01-30T06:28:21;0.40;1.00
648;DHT22;75315;49.006;9.060;2024-01-30T06:31:07;0.50;1.00
648;DHT22;75315;49.006;9.060;2024-01-30T06:33:53;0.40;99.90
648;DHT22;75315;49.006;9.060;2024-01-30T06:36:39;0.30;99.90
648;DHT22;75315;49.006;9.060;2024-01-30T06:39:24;0.50;1.00
648;DHT22;75315;49.006;9.060;2024-01-30T06:42:10;0.40;99.90
648;DHT22;75315;49.006;9.060;2024-01-30T06:44:57;0.40;1.00
648;DHT22;75315;49.006;9.060;2024-01-30T06:47:42;0.50;1.00
648;DHT22;75315;49.006;9.060;2024-01-30T06:50:28;0.50;1.00
648;DHT22;75315;49.006;9.060;2024-01-30T06:53:14;0.40;1.00
648;DHT22;75315;49.006;9.060;2024-01-30T06:55:59;0.40;1.00
648;DHT22;75315;49.006;9.060;2024-01-30T06:58:45;0.30;1.00
648;DHT22;75315;49.006;9.060;2024-01-30T07:01:30;0.40;97.30
648;DHT22;75315;49.006;9.060;2024-01-30T07:04:16;0.40;95.50
648;DHT22;75315;49.006;9.060;2024-01-30T07:07:02;0.40;99.90
648;DHT22;75315;49.006;9.060;2024-01-30T07:09:48;0.40;8.40
648;DHT22;75315;49.006;9.060;2024-01-30T07:12:36;0.40;1.00
648;DHT22;75315;49.006;9.060;2024-01-30T07:15:22;0.30;1.00
648;DHT22;75315;49.006;9.060;2024-01-30T07:18:07;0.30;1.00
648;DHT22;75315;49.006;9.060;2024-01-30T07:20:53;0.30;99.90
648;DHT22;75315;49.006;9.060;2024-01-30T07:23:39;0.40;1.00
648;DHT22;75315;49.006;9.060;2024-01-30T07:26:24;0.30;1.00
648;DHT22;75315;49.006;9.060;2024-01-30T07:29:10;0.40;1.00
648;DHT22;75315;49.006;9.060;2024-01-30T07:31:56;0.50;1.00
648;DHT22;75315;49.006;9.060;2024-01-30T07:34:41;0.50;25.50
648;DHT22;75315;49.006;9.060;2024-01-30T07:37:47;0.60;1.00
648;DHT22;75315;49.006;9.060;2024-01-30T07:40:32;0.80;1.00
648;DHT22;75315;49.006;9.060;2024-01-30T07:43:18;0.90;1.00
648;DHT22;75315;49.006;9.060;2024-01-30T07:46:05;1.00;99.90
648;DHT22;75315;49.006;9.060;2024-01-30T07:48:51;0.90;99.90
648;DHT22;75315;49.006;9.060;2024-01-30T07:51:39;1.00;99.90
648;DHT22;75315;49.006;9.060;2024-01-30T07:54:25;1.10;99.90
648;DHT22;75315;49.006;9.060;2024-01-30T07:57:10;1.20;29.10
648;DHT22;75315;49.006;9.060;2024-01-30T07:59:56;1.40;28.60
648;DHT22;75315;49.006;9.060;2024-01-30T08:02:42;1.60;99.90
648;DHT22;75315;49.006;9.060;2024-01-30T08:05:28;1.80;99.90
648;DHT22;75315;49.006;9.060;2024-01-30T08:08:14;1.80;99.90
648;DHT22;75315;49.006;9.060;2024-01-30T08:10:59;1.90;99.90
648;DHT22;75315;49.006;9.060;2024-01-30T08:13:45;2.00;36.70
648;DHT22;75315;49.006;9.060;2024-01-30T08:16:30;2.30;1.00
648;DHT22;75315;49.006;9.060;2024-01-30T08:19:16;2.60;1.00
648;DHT22;75315;49.006;9.060;2024-01-30T08:22:02;2.80;81.70
648;DHT22;75315;49.006;9.060;2024-01-30T08:24:48;3.00;99.90
648;DHT22;75315;49.006;9.060;2024-01-30T08:27:33;3.30;1.00
648;DHT22;75315;49.006;9.060;2024-01-30T08:30:21;3.50;1.00
648;DHT22;75315;49.006;9.060;2024-01-30T08:33:06;3.60;99.90
648;DHT22;75315;49.006;9.060;2024-01-30T08:35:52;3.60;99.90
648;DHT22;75315;49.006;9.060;2024-01-30T08:38:38;3.50;99.90
648;DHT22;75315;49.006;9.060;2024-01-30T08:41:23;3.50;99.90
648;DHT22;75315;49.006;9.060;2024-01-30T08:44:09;3.50;99.90
648;DHT22;75315;49.006;9.060;2024-01-30T08:46:56;3.50;99.90
648;DHT22;75315;49.006;9.060;2024-01-30T08:49:43;3.60;99.90
648;DHT22;75315;49.006;9.060;2024-01-30T08:52:29;3.70;99.90
648;DHT22;75315;49.006;9.060;2024-01-30T08:55:15;3.70;1.00
648;DHT22;75315;49.006;9.060;2024-01-30T08:58:00;3.70;99.90
648;DHT22;75315;49.006;9.060;2024-01-30T09:00:47;3.70;1.00
648;DHT22;75315;49.006;9.060;2024-01-30T09:03:32;3.80;99.90
648;DHT22;75315;49.006;9.060;2024-01-30T09:06:18;3.90;1.00
648;DHT22;75315;49.006;9.060;2024-01-30T09:09:04;4.10;99.90
648;DHT22;75315;49.006;9.060;2024-01-30T09:11:50;4.40;99.90
648;DHT22;75315;49.006;9.060;2024-01-30T09:14:37;4.40;99.90
648;DHT22;75315;49.006;9.060;2024-01-30T09:17:22;4.80;99.90
648;DHT22;75315;49.006;9.060;2024-01-30T09:20:08;4.80;99.90
648;DHT22;75315;49.006;9.060;2024-01-30T09:22:54;4.90;99.90
648;DHT22;75315;49.006;9.060;2024-01-30T09:25:40;4.80;84.20
648;DHT22;75315;49.006;9.060;2024-01-30T09:28:26;4.80;56.70
648;DHT22;75315;49.006;9.060;2024-01-30T09:31:12;4.90;56.30
648;DHT22;75315;49.006;9.060;2024-01-30T09:33:58;5.10;54.90
648;DHT22;75315;49.006;9.060;2024-01-30T09:36:44;5.40;38.00
648;DHT22;75315;49.006;9.060;2024-01-30T09:39:30;5.50;17.70
648;DHT22;75315;49.006;9.060;2024-01-30T09:45:14;5.70;1.00
648;DHT22;75315;49.006;9.060;2024-01-30T09:48:00;5.60;1.00
648;DHT22;75315;49.006;9.060;2024-01-30T09:50:46;5.70;1.00
648;DHT22;75315;49.006;9.060;2024-01-30T09:53:32;5.90;1.00
648;DHT22;75315;49.006;9.060;2024-01-30T09:56:18;6.10;1.00
648;DHT22;75315;49.006;9.060;2024-01-30T09:59:04;6.10;1.00
648;DHT22;75315;49.006;9.060;2024-01-30T10:01:50;6.10;1.00
648;DHT22;75315;49.006;9.060;2024-01-30T10:04:36;6.00;1.00
648;DHT22;75315;49.006;9.060;2024-01-30T10:07:22;6.00;1.00
648;DHT22;75315;49.006;9.060;2024-01-30T10:10:08;6.10;1.00
648;DHT22;75315;49.006;9.060;2024-01-30T10:12:54;6.10;1.00
648;DHT22;75315;49.006;9.060;2024-01-30T10:15:39;6.10;1.00
648;DHT22;75315;49.006;9.060;2024-01-30T10:18:25;6.20;1.00
648;DHT22;75315;49.006;9.060;2024-01-30T10:21:11;6.20;1.00
648;DHT22;75315;49.006;9.060;2024-01-30T10:23:57;6.20;1.00
648;DHT22;75315;49.006;9.060;2024-01-30T10:26:46;6.20;1.00
648;DHT22;75315;49.006;9.060;2024-01-30T10:29:32;6.30;1.00
648;DHT22;75315;49.006;9.060;2024-01-30T10:32:17;6.10;1.00
648;DHT22;75315;49.006;9.060;2024-01-30T10:35:03;6.00;1.00
648;DHT22;75315;49.006;9.060;2024-01-30T10:37:49;6.00;1.00
648;DHT22;75315;49.006;9.060;2024-01-30T10:40:36;6.20;1.00
648;DHT22;75315;49.006;9.060;2024-01-30T10:43:23;6.20;1.00
648;DHT22;75315;49.006;9.060;2024-01-30T10:46:20;6.30;1.00
648;DHT22;75315;49.006;9.060;2024-01-30T10:49:07;6.30;1.00
648;DHT22;75315;49.006;9.060;2024-01-30T10:51:55;6.50;1.00
648;DHT22;75315;49.006;9.060;2024-01-30T10:54:43;6.70;1.00
648;DHT22;75315;49.006;9.060;2024-01-30T10:57:29;6.70;1.00
648;DHT22;75315;49.006;9.060;2024-01-30T11:00:15;6.80;1.00
648;DHT22;75315;49.006;9.060;2024-01-30T11:03:02;7.00;1.00
648;DHT22;75315;49.006;9.060;2024-01-30T11:05:52;7.30;1.00
648;DHT22;75315;49.006;9.060;2024-01-30T11:08:37;7.30;1.00
648;DHT22;75315;49.006;9.060;2024-01-30T11:11:23;7.20;1.00
648;DHT22;75315;49.006;9.060;2024-01-30T11:14:09;7.30;1.00
648;DHT22;75315;49.006;9.060;2024-01-30T11:16:59;7.40;1.00
648;DHT22;75315;49.006;9.060;2024-01-30T11:19:46;7.50;1.00
648;DHT22;75315;49.006;9.060;2024-01-30T11:22:32;7.50;1.00
648;DHT22;75315;49.006;9.060;2024-01-30T11:25:20;7.50;1.00
648;DHT22;75315;49.006;9.060;2024-01-30T11:28:13;7.60;1.00
648;DHT22;75315;49.006;9.060;2024-01-30T11:31:05;7.60;1.00
648;DHT22;75315;49.006;9.060;2024-01-30T11:33:52;7.80;1.00
648;DHT22;75315;49.006;9.060;2024-01-30T11:36:43;7.80;1.00
648;DHT22;75315;49.006;9.060;2024-01-30T11:39:29;7.80;1.00
648;DHT22;75315;49.006;9.060;2024-01-30T11:42:15;7.80;1.00
648;DHT22;75315;49.006;9.060;2024-01-30T11:45:01;7.80;1.00
648;DHT22;75315;49.006;9.060;2024-01-30T11:47:48;8.00;1.00
648;DHT22;75315;49.006;9.060;2024-01-30T11:50:34;8.20;1.00
648;DHT22;75315;49.006;9.060;2024-01-30T11:53:20;8.30;1.00
648;DHT22;75315;49.006;9.060;2024-01-30T11:56:06;8.40;1.00
648;DHT22;75315;49.006;9.060;2024-01-30T11:58:52;8.40;1.00
648;DHT22;75315;49.006;9.060;2024-01-30T12:01:38;8.40;1.00
648;DHT22;75315;49.006;9.060;2024-01-30T12:04:28;8.50;1.00
648;DHT22;75315;49.006;9.060;2024-01-30T12:07:15;8.60;1.00
648;DHT22;75315;49.006;9.060;2024-01-30T12:10:02;8.40;1.00
648;DHT22;75315;49.006;9.060;2024-01-30T12:12:51;8.70;1.00
648;DHT22;75315;49.006;9.060;2024-01-30T12:15:37;8.70;1.00
648;DHT22;75315;49.006;9.060;2024-01-30T12:18:23;8.70;1.00
648;DHT22;75315;49.006;9.060;2024-01-30T12:21:09;8.80;1.00
648;DHT22;75315;49.006;9.060;2024-01-30T12:23:56;8.70;1.00
648;DHT22;75315;49.006;9.060;2024-01-30T12:26:42;8.70;1.00
648;DHT22;75315;49.006;9.060;2024-01-30T12:29:32;8.90;1.00
648;DHT22;75315;49.006;9.060;2024-01-30T12:32:23;8.80;1.00
648;DHT22;75315;49.006;9.060;2024-01-30T12:35:16;8.90;1.00
648;DHT22;75315;49.006;9.060;2024-01-30T12:38:02;8.80;1.00
648;DHT22;75315;49.006;9.060;2024-01-30T12:40:48;8.80;1.00
648;DHT22;75315;49.006;9.060;2024-01-30T12:43:34;9.10;1.00
648;DHT22;75315;49.006;9.060;2024-01-30T12:46:29;9.20;1.00
648;DHT22;75315;49.006;9.060;2024-01-30T12:49:15;9.30;1.00
648;DHT22;75315;49.006;9.060;2024-01-30T12:52:01;9.40;1.00
648;DHT22;75315;49.006;9.060;2024-01-30T12:54:48;9.40;1.00
648;DHT22;75315;49.006;9.060;2024-01-30T12:57:34;9.60;1.00
648;DHT22;75315;49.006;9.060;2024-01-30T13:00:20;9.60;1.00
648;DHT22;75315;49.006;9.060;2024-01-30T13:03:06;9.70;1.00
648;DHT22;75315;49.006;9.060;2024-01-30T13:05:51;9.90;1.00
648;DHT22;75315;49.006;9.060;2024-01-30T13:08:37;10.00;1.00
648;DHT22;75315;49.006;9.060;2024-01-30T13:11:23;10.30;1.00
648;DHT22;75315;49.006;9.060;2024-01-30T13:14:11;10.40;1.00
648;DHT22;75315;49.006;9.060;2024-01-30T13:16:56;10.60;1.00
648;DHT22;75315;49.006;9.060;2024-01-30T13:19:42;10.60;1.00
648;DHT22;75315;49.006;9.060;2024-01-30T13:22:27;10.60;1.00
648;DHT22;75315;49.006;9.060;2024-01-30T13:25:13;10.70;1.00
648;DHT22;75315;49.006;9.060;2024-01-30T13:27:59;10.70;1.00
648;DHT22;75315;49.006;9.060;2024-01-30T13:30:44;10.70;1.00
648;DHT22;75315;49.006;9.060;2024-01-30T13:33:30;10.70;1.00
648;DHT22;75315;49.006;9.060;2024-01-30T13:36:16;10.70;1.00
648;DHT22;75315;49.006;9.060;2024-01-30T13:39:02;10.80;1.00
648;DHT22;75315;49.006;9.060;2024-01-30T13:41:48;11.00;1.00
648;DHT22;75315;49.006;9.060;2024-01-30T13:44:35;11.00;1.00
648;DHT22;75315;49.006;9.060;2024-01-30T13:47:22;11.00;1.00
648;DHT22;75315;49.006;9.060;2024-01-30T13:50:08;11.00;1.00
648;DHT22;75315;49.006;9.060;2024-01-30T13:52:54;11.10;1.00
648;DHT22;75315;49.006;9.060;2024-01-30T13:55:41;11.10;1.00
648;DHT22;75315;49.006;9.060;2024-01-30T13:58:27;11.10;1.00
648;DHT22;75315;49.006;9.060;2024-01-30T14:01:13;11.10;1.00
648;DHT22;75315;49.006;9.060;2024-01-30T14:03:58;11.00;1.00
648;DHT22;75315;49.006;9.060;2024-01-30T14:06:44;11.00;1.00
648;DHT22;75315;49.006;9.060;2024-01-30T14:09:41;11.10;1.00
648;DHT22;75315;49.006;9.060;2024-01-30T14:12:27;10.90;1.00
648;DHT22;75315;49.006;9.060;2024-01-30T14:15:13;10.90;1.00
648;DHT22;75315;49.006;9.060;2024-01-30T14:18:12;10.90;1.00
648;DHT22;75315;49.006;9.060;2024-01-30T14:20:57;11.00;1.00
648;DHT22;75315;49.006;9.060;2024-01-30T14:23:43;11.00;1.00
648;DHT22;75315;49.006;9.060;2024-01-30T14:26:28;10.90;1.00
648;DHT22;75315;49.006;9.060;2024-01-30T14:29:14;10.80;1.00
648;DHT22;75315;49.006;9.060;2024-01-30T14:32:00;10.70;1.00
648;DHT22;75315;49.006;9.060;2024-01-30T14:34:45;10.50;1.00
648;DHT22;75315;49.006;9.060;2024-01-30T14:37:31;10.50;1.00
648;DHT22;75315;49.006;9.060;2024-01-30T14:40:17;10.40;1.00
648;DHT22;75315;49.006;9.060;2024-01-30T14:43:04;10.50;1.00
648;DHT22;75315;49.006;9.060;2024-01-30T14:45:49;10.60;1.00
648;DHT22;75315;49.006;9.060;2024-01-30T14:48:35;10.50;1.00
648;DHT22;75315;49.006;9.060;2024-01-30T14:51:21;10.60;1.00
648;DHT22;75315;49.006;9.060;2024-01-30T14:54:07;10.40;1.00
648;DHT22;75315;49.006;9.060;2024-01-30T14:56:53;10.40;1.00
648;DHT22;75315;49.006;9.060;2024-01-30T14:59:39;10.30;1.00
648;DHT22;75315;49.006;9.060;2024-01-30T15:02:24;10.30;1.00
648;DHT22;75315;49.006;9.060;2024-01-30T15:05:10;10.30;1.00
648;DHT22;75315;49.006;9.060;2024-01-30T15:07:56;10.20;1.00
648;DHT22;75315;49.006;9.060;2024-01-30T15:10:42;10.10;1.00
648;DHT22;75315;49.006;9.060;2024-01-30T15:13:28;10.00;1.00
648;DHT22;75315;49.006;9.060;2024-01-30T15:16:14;9.90;1.00
648;DHT22;75315;49.006;9.060;2024-01-30T15:19:00;9.90;1.00
648;DHT22;75315;49.006;9.060;2024-01-30T15:21:45;9.80;1.00
648;DHT22;75315;49.006;9.060;2024-01-30T15:24:31;9.60;1.00
648;DHT22;75315;49.006;9.060;2024-01-30T15:27:17;9.80;1.00
648;DHT22;75315;49.006;9.060;2024-01-30T15:30:05;9.60;1.00
648;DHT22;75315;49.006;9.060;2024-01-30T15:32:51;9.50;1.00
648;DHT22;75315;49.006;9.060;2024-01-30T15:35:37;9.30;1.00
648;DHT22;75315;49.006;9.060;2024-01-30T15:38:23;9.30;1.00
648;DHT22;75315;49.006;9.060;2024-01-30T15:41:09;9.20;1.00
648;DHT22;75315;49.006;9.060;2024-01-30T15:43:55;9.10;1.00
648;DHT22;75315;49.006;9.060;2024-01-30T15:46:41;9.20;1.00
648;DHT22;75315;49.006;9.060;2024-01-30T15:49:26;8.90;1.00
648;DHT22;75315;49.006;9.060;2024-01-30T15:52:11;8.80;1.00
648;DHT22;75315;49.006;9.060;2024-01-30T15:55:00;8.70;1.00
648;DHT22;75315;49.006;9.060;2024-01-30T15:57:46;8.50;1.00
648;DHT22;75315;49.006;9.060;2024-01-30T16:00:32;8.50;1.00
648;DHT22;75315;49.006;9.060;2024-01-30T16:03:18;8.40;1.00
648;DHT22;75315;49.006;9.060;2024-01-30T16:06:03;8.50;1.00
648;DHT22;75315;49.006;9.060;2024-01-30T16:08:49;8.30;1.00
648;DHT22;75315;49.006;9.060;2024-01-30T16:11:38;8.20;1.00
648;DHT22;75315;49.006;9.060;2024-01-30T16:14:24;8.20;1.00
648;DHT22;75315;49.006;9.060;2024-01-30T16:17:10;8.20;1.00
648;DHT22;75315;49.006;9.060;2024-01-30T16:19:56;8.10;1.00
648;DHT22;75315;49.006;9.060;2024-01-30T16:22:41;8.00;1.00
648;DHT22;75315;49.006;9.060;2024-01-30T16:25:27;7.80;1.00
648;DHT22;75315;49.006;9.060;2024-01-30T16:28:13;7.70;1.00
648;DHT22;75315;49.006;9.060;2024-01-30T16:30:58;7.80;1.00
648;DHT22;75315;49.006;9.060;2024-01-30T16:33:47;7.60;1.00
648;DHT22;75315;49.006;9.060;2024-01-30T16:36:33;7.70;1.00
648;DHT22;75315;49.006;9.060;2024-01-30T16:39:19;7.50;1.00
648;DHT22;75315;49.006;9.060;2024-01-30T16:42:04;7.40;1.00
648;DHT22;75315;49.006;9.060;2024-01-30T16:44:52;7.50;1.00
648;DHT22;75315;49.006;9.060;2024-01-30T16:47:38;7.50;1.00
648;DHT22;75315;49.006;9.060;2024-01-30T16:50:24;7.50;1.00
648;DHT22;75315;49.006;9.060;2024-01-30T16:53:09;7.20;1.00
648;DHT22;75315;49.006;9.060;2024-01-30T16:55:55;7.20;1.00
648;DHT22;75315;49.006;9.060;2024-01-30T16:58:40;7.20;1.00
648;DHT22;75315;49.006;9.060;2024-01-30T17:01:26;7.20;1.00
648;DHT22;75315;49.006;9.060;2024-01-30T17:04:12;7.20;1.00
648;DHT22;75315;49.006;9.060;2024-01-30T17:06:58;7.10;1.00
648;DHT22;75315;49.006;9.060;2024-01-30T17:09:44;7.00;1.00
648;DHT22;75315;49.006;9.060;2024-01-30T17:12:30;7.20;1.00
648;DHT22;75315;49.006;9.060;2024-01-30T17:15:18;7.10;1.00
648;DHT22;75315;49.006;9.060;2024-01-30T17:18:04;7.10;1.00
648;DHT22;75315;49.006;9.060;2024-01-30T17:20:50;7.10;1.00
648;DHT22;75315;49.006;9.060;2024-01-30T17:23:35;7.20;1.00
648;DHT22;75315;49.006;9.060;2024-01-30T17:26:22;7.10;1.00
648;DHT22;75315;49.006;9.060;2024-01-30T17:29:11;7.10;1.00
648;DHT22;75315;49.006;9.060;2024-01-30T17:31:57;7.00;1.00
648;DHT22;75315;49.006;9.060;2024-01-30T17:34:42;7.00;1.00
648;DHT22;75315;49.006;9.060;2024-01-30T17:37:28;6.80;1.00
648;DHT22;75315;49.006;9.060;2024-01-30T17:40:13;6.80;35.10
648;DHT22;75315;49.006;9.060;2024-01-30T17:42:59;6.80;33.40
648;DHT22;75315;49.006;9.060;2024-01-30T17:45:45;6.80;22.00
648;DHT22;75315;49.006;9.060;2024-01-30T17:48:31;6.90;46.00
648;DHT22;75315;49.006;9.060;2024-01-30T17:51:17;6.90;31.40
648;DHT22;75315;49.006;9.060;2024-01-30T17:54:03;7.00;12.70
648;DHT22;75315;49.006;9.060;2024-01-30T17:56:49;7.00;1.00
648;DHT22;75315;49.006;9.060;2024-01-30T17:59:36;6.90;2.30
648;DHT22;75315;49.006;9.060;2024-01-30T18:02:21;6.80;1.00
648;DHT22;75315;49.006;9.060;2024-01-30T18:05:08;7.00;1.00
648;DHT22;75315;49.006;9.060;2024-01-30T18:07:55;7.00;1.00
648;DHT22;75315;49.006;9.060;2024-01-30T18:10:41;7.10;1.00
648;DHT22;75315;49.006;9.060;2024-01-30T18:13:27;7.20;1.00
648;DHT22;75315;49.006;9.060;2024-01-30T18:16:13;7.20;1.00
648;DHT22;75315;49.006;9.060;2024-01-30T18:18:59;7.30;1.00
648;DHT22;75315;49.006;9.060;2024-01-30T18:21:44;7.40;1.00
648;DHT22;75315;49.006;9.060;2024-01-30T18:24:30;7.40;1.00
648;DHT22;75315;49.006;9.060;2024-01-30T18:27:16;7.30;1.00
648;DHT22;75315;49.006;9.060;2024-01-30T18:30:03;7.20;1.00
648;DHT22;75315;49.006;9.060;2024-01-30T18:32:49;7.30;1.00
648;DHT22;75315;49.006;9.060;2024-01-30T18:35:34;7.20;1.00